Indian Mountain LRRS Airport Utopia Creek US
ICAO: PAIM
IATA:
Category: Medium
Scheduled Services:

Elevation: 1273 ft
TransAlt. 18000 ft.

Airport Communications:
ANCHORAGE CNTR:124.6
CTAF:126.2
FAIRBANKS RDO:122.6

PAIM Zoom In..

If you have problems with the map follow the link
https://www.worldairports.se/pages/airport.php?
ICAO=PAIM

Runways:

(A) RW 06 length 4196 ft width 148 ft
---- / hdg 59

(B) RW 24 length 4196 ft width 148 ft
---- / hdg 239

Location; PAIM
Day. 12 / Time. 11.55 Zulu
* Altimeter: 29.53
* Temperature: -07° c. -19.4°f.
* Wind from: 060° Speed 15 kn with Gusts up to 30 kn.
Dewpoint: -12° c.
Visibility: 10 Statute Miles.
Clouds: Clear (automated report).
Conditions: Light Snow Showers.

PAIM 121155Z AUTO 06015G30KT 040V120 10SM -SHSN CLR M07/M12 A2953 RMK AO2 PK WND 06037/1112 SHSNB0955 SLP028 T10741125 11071 21081 55005


Wind From 060°
Speed 15 kn.

 
 
jpsmedia worldairports.se 2019   terms of use